createdAt,value
2019-02-18T00:00:02.653Z,10.26
2019-02-18T00:02:31.256Z,10.15
2019-02-18T00:04:59.872Z,10.45
2019-02-18T00:07:28.446Z,10.55
2019-02-18T00:09:57.232Z,10.37
2019-02-18T00:12:26.033Z,10.26
2019-02-18T00:14:55.059Z,10.30
2019-02-18T00:17:23.970Z,10.02
2019-02-18T00:19:52.840Z,10.17
2019-02-18T00:22:21.851Z,9.96
2019-02-18T00:24:50.629Z,9.88
2019-02-18T00:27:19.426Z,9.88
2019-02-18T00:29:48.019Z,9.71
2019-02-18T00:32:16.597Z,9.67
2019-02-18T00:34:45.187Z,9.38
2019-02-18T00:37:13.784Z,9.42
2019-02-18T00:39:42.372Z,9.42
2019-02-18T00:42:10.937Z,9.29
2019-02-18T00:44:39.564Z,9.32
2019-02-18T00:47:08.386Z,9.23
2019-02-18T00:49:37.201Z,9.04
2019-02-18T00:52:05.773Z,9.04
2019-02-18T00:54:34.613Z,8.99
2019-02-18T00:57:03.182Z,8.97
2019-02-18T00:59:31.773Z,8.94
2019-02-18T01:02:00.593Z,8.73
2019-02-18T01:04:29.194Z,8.61
2019-02-18T01:06:58.416Z,8.66
2019-02-18T01:09:26.981Z,8.60
2019-02-18T01:11:55.553Z,8.51
2019-02-18T01:14:24.188Z,8.67
2019-02-18T01:16:52.782Z,8.46
2019-02-18T01:19:21.537Z,8.28
2019-02-18T01:21:50.360Z,8.51
2019-02-18T01:24:18.962Z,8.40
2019-02-18T01:26:47.542Z,8.34
2019-02-18T01:29:16.360Z,8.22
2019-02-18T01:31:44.935Z,8.47
2019-02-18T01:34:13.822Z,8.55
2019-02-18T01:36:42.370Z,8.70
2019-02-18T01:39:10.966Z,8.75
2019-02-18T01:41:39.539Z,8.66
2019-02-18T01:44:08.136Z,8.70
2019-02-18T01:46:36.707Z,8.62
2019-02-18T01:49:05.645Z,8.32
2019-02-18T01:51:34.224Z,8.62
2019-02-18T01:54:02.822Z,8.82
2019-02-18T01:56:31.391Z,8.81
2019-02-18T01:59:00.220Z,8.63
2019-02-18T02:01:28.796Z,8.66
2019-02-18T02:03:57.426Z,8.64
2019-02-18T02:06:25.992Z,8.63
2019-02-18T02:08:54.562Z,8.65
2019-02-18T02:11:23.146Z,8.53
2019-02-18T02:13:52.000Z,8.76
2019-02-18T02:16:20.825Z,8.94
2019-02-18T02:18:49.417Z,8.96
2019-02-18T02:21:17.997Z,8.75
2019-02-18T02:23:46.616Z,8.30
2019-02-18T02:26:15.176Z,8.12
2019-02-18T02:28:43.766Z,8.24
2019-02-18T02:31:12.795Z,8.24
2019-02-18T02:33:41.390Z,8.43
2019-02-18T02:36:10.446Z,8.32
2019-02-18T02:38:39.030Z,8.42
2019-02-18T02:41:07.612Z,8.14
2019-02-18T02:43:36.199Z,8.03
2019-02-18T02:46:04.797Z,8.27
2019-02-18T02:48:33.364Z,8.35
2019-02-18T02:51:01.967Z,8.24
2019-02-18T02:53:30.534Z,8.34
2019-02-18T02:55:59.352Z,8.15
2019-02-18T02:58:27.943Z,8.21
2019-02-18T03:00:56.518Z,8.05
2019-02-18T03:03:25.113Z,8.20
2019-02-18T03:05:53.709Z,8.14
2019-02-18T03:08:22.295Z,8.16
2019-02-18T03:10:50.857Z,8.13
2019-02-18T03:13:19.464Z,8.13
2019-02-18T03:15:48.344Z,8.15
2019-02-18T03:18:16.995Z,8.09
2019-02-18T03:20:45.651Z,8.08
2019-02-18T03:23:14.473Z,8.18
2019-02-18T03:25:43.992Z,8.32
2019-02-18T03:28:33.325Z,8.36
2019-02-18T03:31:11.490Z,8.21
2019-02-18T03:33:49.215Z,8.22
2019-02-18T03:36:17.816Z,8.13
2019-02-18T03:38:46.666Z,8.28
2019-02-18T03:41:15.513Z,8.17
2019-02-18T03:43:44.203Z,8.24
2019-02-18T03:46:12.839Z,8.26
2019-02-18T03:48:41.400Z,8.18
2019-02-18T03:51:10.002Z,8.12
2019-02-18T03:53:38.566Z,8.14
2019-02-18T03:56:07.143Z,8.11
2019-02-18T03:58:35.715Z,8.16
2019-02-18T04:01:04.406Z,8.35
2019-02-18T04:03:32.966Z,8.35
2019-02-18T04:06:01.571Z,8.47
2019-02-18T04:08:30.152Z,8.35
2019-02-18T04:10:58.743Z,8.64
2019-02-18T04:13:27.329Z,8.61
2019-02-18T04:15:56.169Z,8.51
2019-02-18T04:18:25.058Z,8.46
2019-02-18T04:20:53.631Z,8.48
2019-02-18T04:23:22.210Z,8.53
2019-02-18T04:25:51.034Z,8.65
2019-02-18T04:28:19.602Z,8.30
2019-02-18T04:30:48.188Z,8.12
2019-02-18T04:33:16.784Z,8.48
2019-02-18T04:35:45.394Z,8.50
2019-02-18T04:38:14.231Z,8.72
2019-02-18T04:40:42.898Z,8.72
2019-02-18T04:43:11.483Z,8.60
2019-02-18T04:45:40.069Z,8.71
2019-02-18T04:48:08.635Z,8.52
2019-02-18T04:50:37.467Z,8.50
2019-02-18T04:53:06.310Z,8.41
2019-02-18T04:55:34.869Z,8.55
2019-02-18T04:58:06.027Z,8.68
2019-02-18T05:00:33.740Z,8.48
2019-02-18T05:03:02.331Z,8.77
2019-02-18T05:05:31.389Z,8.91
2019-02-18T05:07:59.986Z,8.76
2019-02-18T05:10:28.578Z,8.74
2019-02-18T05:12:57.158Z,8.82
2019-02-18T05:15:25.803Z,8.64
2019-02-18T05:17:54.533Z,8.60
2019-02-18T05:20:23.110Z,8.58
2019-02-18T05:22:51.686Z,8.51
2019-02-18T05:25:20.496Z,8.61
2019-02-18T05:27:49.641Z,8.29
2019-02-18T05:30:18.246Z,8.53
2019-02-18T05:32:48.581Z,8.44
2019-02-18T05:35:17.223Z,8.38
2019-02-18T05:37:45.897Z,8.20
2019-02-18T05:40:14.524Z,8.19
2019-02-18T05:42:43.163Z,8.26
2019-02-18T05:45:11.955Z,8.48
2019-02-18T05:47:40.540Z,8.40
2019-02-18T05:50:09.481Z,8.39
2019-02-18T05:52:38.319Z,8.40
2019-02-18T05:55:07.245Z,8.45
2019-02-18T05:57:36.107Z,7.95
2019-02-18T06:00:06.019Z,8.25
2019-02-18T06:02:34.943Z,8.22
2019-02-18T06:05:03.585Z,8.16
2019-02-18T06:07:32.306Z,8.11
2019-02-18T06:10:01.295Z,8.23
2019-02-18T06:12:30.014Z,8.29
2019-02-18T06:14:58.854Z,8.00
2019-02-18T06:17:27.662Z,8.04
2019-02-18T06:19:56.540Z,8.01
2019-02-18T06:22:25.291Z,7.74
2019-02-18T06:24:54.148Z,7.71
2019-02-18T06:27:23.284Z,7.61
2019-02-18T06:29:51.970Z,7.40
2019-02-18T06:32:20.790Z,7.48
2019-02-18T06:34:49.774Z,7.51
2019-02-18T06:37:18.362Z,7.41
2019-02-18T06:39:46.937Z,7.29
2019-02-18T06:42:15.513Z,7.30
2019-02-18T06:44:58.849Z,7.18
2019-02-18T06:47:28.957Z,6.95
2019-02-18T06:49:57.552Z,6.76
2019-02-18T06:52:26.232Z,7.16
2019-02-18T06:54:54.836Z,7.14
2019-02-18T06:57:35.025Z,7.31
2019-02-18T07:00:23.297Z,7.23
2019-02-18T07:03:06.917Z,7.12
2019-02-18T07:05:41.837Z,7.17
2019-02-18T07:08:22.807Z,7.30
2019-02-18T07:10:56.807Z,7.16
2019-02-18T07:13:25.419Z,7.12
2019-02-18T07:15:54.137Z,7.04
2019-02-18T07:18:22.856Z,7.23
2019-02-18T07:20:51.768Z,7.48
2019-02-18T07:23:20.358Z,7.48
2019-02-18T07:25:49.237Z,7.38
2019-02-18T07:28:18.090Z,7.52
2019-02-18T07:30:47.063Z,7.83
2019-02-18T07:33:15.673Z,7.91
2019-02-18T07:35:44.280Z,7.79
2019-02-18T07:38:12.883Z,7.87
2019-02-18T07:40:41.703Z,7.56
2019-02-18T07:43:10.462Z,7.95
2019-02-18T07:45:39.087Z,7.73
2019-02-18T07:48:07.886Z,8.31
2019-02-18T07:50:37.177Z,8.31
2019-02-18T07:53:06.224Z,8.38
2019-02-18T07:55:35.374Z,8.45
2019-02-18T07:58:03.946Z,8.79
2019-02-18T08:00:32.562Z,8.73
2019-02-18T08:03:01.373Z,8.45
2019-02-18T08:05:30.035Z,8.64
2019-02-18T08:07:58.632Z,8.69
2019-02-18T08:10:27.472Z,9.02
2019-02-18T08:12:56.088Z,9.91
2019-02-18T08:15:24.682Z,10.41
2019-02-18T08:17:53.277Z,10.99
2019-02-18T08:20:21.846Z,11.36
2019-02-18T08:22:50.419Z,11.38
2019-02-18T08:25:19.012Z,11.24
2019-02-18T08:27:47.604Z,11.74
2019-02-18T08:30:16.288Z,11.84
2019-02-18T08:32:44.857Z,11.80
2019-02-18T08:35:13.446Z,11.93
2019-02-18T08:37:42.048Z,11.92
2019-02-18T08:40:10.771Z,12.22
2019-02-18T08:42:39.369Z,12.60
2019-02-18T08:45:09.661Z,12.46
2019-02-18T08:47:38.523Z,12.78
2019-02-18T08:50:08.894Z,14.43
2019-02-18T08:52:37.554Z,14.43
2019-02-18T08:55:07.828Z,15.43
2019-02-18T08:57:36.404Z,15.92
2019-02-18T09:00:05.942Z,16.43
2019-02-18T09:02:34.528Z,17.54
2019-02-18T09:05:03.127Z,18.56
2019-02-18T09:07:31.951Z,21.17
2019-02-18T09:10:00.563Z,22.65
2019-02-18T09:12:29.177Z,23.49
2019-02-18T09:14:57.778Z,24.35
2019-02-18T09:17:26.407Z,24.17
2019-02-18T09:19:55.004Z,25.76
2019-02-18T09:22:35.971Z,25.36
2019-02-18T09:25:14.574Z,26.79
2019-02-18T09:27:43.167Z,24.93
2019-02-18T09:30:11.885Z,24.17
2019-02-18T09:32:40.722Z,24.94
2019-02-18T09:35:09.357Z,25.46
2019-02-18T09:37:37.965Z,26.25
2019-02-18T09:40:06.983Z,25.89
2019-02-18T09:42:35.607Z,26.96
2019-02-18T09:45:04.312Z,28.86
2019-02-18T09:47:33.141Z,29.55
2019-02-18T09:50:01.740Z,29.84
2019-02-18T09:52:30.341Z,28.55
2019-02-18T09:54:58.974Z,26.93
2019-02-18T09:57:27.569Z,28.02
2019-02-18T09:59:56.254Z,28.73
2019-02-18T10:02:25.077Z,29.78
2019-02-18T10:04:53.653Z,29.98
2019-02-18T10:07:22.323Z,27.56
2019-02-18T10:09:50.915Z,26.56
2019-02-18T10:12:19.493Z,26.61
2019-02-18T10:14:48.321Z,26.06
2019-02-18T10:17:16.924Z,25.42
2019-02-18T10:19:45.512Z,25.55
2019-02-18T10:22:14.119Z,26.99
2019-02-18T10:27:13.063Z,28.77
2019-02-18T10:29:41.613Z,27.60
2019-02-18T10:32:10.261Z,27.26
2019-02-18T10:34:38.924Z,27.52
2019-02-18T10:37:07.525Z,27.14
2019-02-18T10:39:36.365Z,26.30
2019-02-18T10:42:05.286Z,25.98
2019-02-18T10:44:33.890Z,26.26
2019-02-18T10:47:02.460Z,25.44
2019-02-18T10:49:31.373Z,26.66
2019-02-18T10:51:59.967Z,26.19
2019-02-18T10:54:28.552Z,26.05
2019-02-18T10:56:57.142Z,24.91
2019-02-18T10:59:25.804Z,23.68
2019-02-18T11:01:55.004Z,22.74
2019-02-18T11:04:23.846Z,22.43
2019-02-18T11:06:52.459Z,22.00
2019-02-18T11:09:21.529Z,21.59
2019-02-18T11:11:50.114Z,20.89
2019-02-18T11:14:18.694Z,20.47
2019-02-18T11:16:47.293Z,20.68
2019-02-18T11:19:17.565Z,20.03
2019-02-18T11:21:46.388Z,20.25
2019-02-18T11:24:15.267Z,20.69
2019-02-18T11:26:43.943Z,21.13
2019-02-18T11:29:12.748Z,20.53
2019-02-18T11:31:41.365Z,20.13
2019-02-18T11:34:09.951Z,20.52
2019-02-18T11:36:38.540Z,20.62
2019-02-18T11:39:11.758Z,20.66
2019-02-18T11:41:40.357Z,20.63
2019-02-18T11:44:08.971Z,20.79
2019-02-18T11:46:37.586Z,20.86
2019-02-18T11:49:06.299Z,20.47
2019-02-18T11:51:34.877Z,19.31
2019-02-18T11:54:03.711Z,19.22
2019-02-18T11:56:32.911Z,18.89
2019-02-18T11:59:02.397Z,19.41
2019-02-18T12:01:31.085Z,19.23
2019-02-18T12:03:59.758Z,19.10
2019-02-18T12:06:28.446Z,19.99
2019-02-18T12:08:57.157Z,21.07
2019-02-18T12:11:25.762Z,23.09
2019-02-18T12:13:54.495Z,24.44
2019-02-18T12:16:23.087Z,24.55
2019-02-18T12:18:51.928Z,24.76
2019-02-18T12:21:20.765Z,24.36
2019-02-18T12:23:49.364Z,24.84
2019-02-18T12:26:18.010Z,25.37
2019-02-18T12:28:46.629Z,26.12
2019-02-18T12:31:15.228Z,25.11
2019-02-18T12:33:43.870Z,25.86
2019-02-18T12:36:15.472Z,26.69
2019-02-18T12:38:44.068Z,26.12
2019-02-18T12:41:13.537Z,26.88
2019-02-18T12:43:42.726Z,28.46
2019-02-18T12:46:15.780Z,28.05
2019-02-18T12:48:42.498Z,27.62
2019-02-18T12:51:11.109Z,28.51
2019-02-18T12:53:39.715Z,28.63
2019-02-18T12:56:08.718Z,25.46
2019-02-18T12:58:37.387Z,26.70
2019-02-18T13:01:07.059Z,26.70
2019-02-18T13:03:35.634Z,27.26
2019-02-18T13:06:04.506Z,26.95
2019-02-18T13:08:33.119Z,27.11
2019-02-18T13:11:01.738Z,26.11
2019-02-18T13:13:31.398Z,26.20
2019-02-18T13:16:00.029Z,26.36
2019-02-18T13:18:29.197Z,26.98
2019-02-18T13:20:57.802Z,26.90
2019-02-18T13:23:26.387Z,26.72
2019-02-18T13:25:55.013Z,25.27
2019-02-18T13:28:23.586Z,25.99
2019-02-18T13:30:52.191Z,24.28
2019-02-18T13:33:20.826Z,22.48
2019-02-18T13:35:49.670Z,22.36
2019-02-18T13:38:18.487Z,20.90
2019-02-18T13:40:47.071Z,20.13
2019-02-18T13:43:15.787Z,20.51
2019-02-18T13:45:44.372Z,20.48
2019-02-18T13:48:12.984Z,19.83
2019-02-18T13:50:41.824Z,19.47
2019-02-18T13:53:10.427Z,18.79
2019-02-18T13:55:39.271Z,18.78
2019-02-18T13:58:07.846Z,18.71
2019-02-18T14:00:36.553Z,19.23
2019-02-18T14:03:05.121Z,19.00
2019-02-18T14:05:34.043Z,18.10
2019-02-18T14:08:02.843Z,18.29
2019-02-18T14:10:31.450Z,18.23
2019-02-18T14:13:00.276Z,17.87
2019-02-18T14:15:28.943Z,17.48
2019-02-18T14:17:59.528Z,17.40
2019-02-18T14:20:28.123Z,17.48
2019-02-18T14:22:57.268Z,17.53
2019-02-18T14:25:25.910Z,17.83
2019-02-18T14:27:54.487Z,17.79
2019-02-18T14:30:23.071Z,17.99
2019-02-18T14:32:51.769Z,17.76
2019-02-18T14:35:20.373Z,18.28
2019-02-18T14:37:49.923Z,18.28
2019-02-18T14:40:20.152Z,17.40
2019-02-18T14:42:48.855Z,17.86
2019-02-18T14:45:17.585Z,17.29
2019-02-18T14:47:46.293Z,16.99
2019-02-18T14:50:17.449Z,17.08
2019-02-18T14:52:46.636Z,16.83
2019-02-18T14:55:15.342Z,17.21
2019-02-18T14:57:44.044Z,16.83
2019-02-18T15:00:17.898Z,15.92
2019-02-18T15:02:46.763Z,16.16
2019-02-18T15:05:15.653Z,17.14
2019-02-18T15:07:44.616Z,16.62
2019-02-18T15:10:14.685Z,16.33
2019-02-18T15:12:43.495Z,16.09
2019-02-18T15:15:12.128Z,16.47
2019-02-18T15:17:40.787Z,16.97
2019-02-18T15:20:11.519Z,16.29
2019-02-18T15:22:40.146Z,16.67
2019-02-18T15:25:08.936Z,16.78
2019-02-18T15:27:37.987Z,15.83
2019-02-18T15:30:08.139Z,16.40
2019-02-18T15:32:36.724Z,16.41
2019-02-18T15:35:05.599Z,16.43
2019-02-18T15:37:34.580Z,16.92
2019-02-18T15:40:03.896Z,17.26
2019-02-18T15:42:32.500Z,16.71
2019-02-18T15:45:01.167Z,16.69
2019-02-18T15:47:30.018Z,16.77
2019-02-18T15:49:59.073Z,16.62
2019-02-18T15:52:27.957Z,16.76
2019-02-18T15:54:56.830Z,16.61
2019-02-18T15:57:25.490Z,16.34
2019-02-18T15:59:54.437Z,16.84
2019-02-18T16:02:23.594Z,16.05
2019-02-18T16:04:52.172Z,16.06
2019-02-18T16:07:21.146Z,15.61
2019-02-18T16:09:49.730Z,15.15
2019-02-18T16:12:18.353Z,15.29
2019-02-18T16:14:47.413Z,14.92
2019-02-18T16:17:16.010Z,14.93
2019-02-18T16:19:44.919Z,14.70
2019-02-18T16:22:13.638Z,14.62
2019-02-18T16:24:42.711Z,14.68
2019-02-18T16:27:11.583Z,14.08
2019-02-18T16:29:40.189Z,14.06
2019-02-18T16:32:08.907Z,14.54
2019-02-18T16:34:38.116Z,14.47
2019-02-18T16:37:07.081Z,14.32
2019-02-18T16:39:35.913Z,13.82
2019-02-18T16:42:05.129Z,13.86
2019-02-18T16:44:33.847Z,13.59
2019-02-18T16:47:02.450Z,13.47
2019-02-18T16:49:31.378Z,13.62
2019-02-18T16:51:59.937Z,13.63
2019-02-18T16:54:28.674Z,14.16
2019-02-18T16:56:57.541Z,13.83
2019-02-18T16:59:30.761Z,13.34
2019-02-18T17:01:59.474Z,13.52
2019-02-18T17:04:28.026Z,13.21
2019-02-18T17:06:56.878Z,13.46
2019-02-18T17:09:25.489Z,13.70
2019-02-18T17:11:54.307Z,13.68
2019-02-18T17:14:22.894Z,13.19
2019-02-18T17:16:51.736Z,12.97
2019-02-18T17:19:20.447Z,12.77
2019-02-18T17:21:49.260Z,13.09
2019-02-18T17:24:18.138Z,12.83
2019-02-18T17:26:46.746Z,12.93
2019-02-18T17:29:15.377Z,13.45
2019-02-18T17:31:44.003Z,12.74
2019-02-18T17:34:12.741Z,12.90
2019-02-18T17:36:41.315Z,12.51
2019-02-18T17:39:10.174Z,13.09
2019-02-18T17:41:38.785Z,12.81
2019-02-18T17:44:07.376Z,13.06
2019-02-18T17:46:35.965Z,12.80
2019-02-18T17:49:05.047Z,12.94
2019-02-18T17:51:36.772Z,12.99
2019-02-18T17:54:05.397Z,12.79
2019-02-18T17:56:34.268Z,13.18
2019-02-18T17:59:02.888Z,13.43
2019-02-18T18:01:31.499Z,13.21
2019-02-18T18:04:00.126Z,13.21
2019-02-18T18:06:28.735Z,12.74
2019-02-18T18:08:57.503Z,13.77
2019-02-18T18:11:26.371Z,12.83
2019-02-18T18:13:55.004Z,12.83
2019-02-18T18:16:23.846Z,12.50
2019-02-18T18:18:52.771Z,13.21
2019-02-18T18:21:21.595Z,13.21
2019-02-18T18:23:50.411Z,13.60
2019-02-18T18:26:19.007Z,14.01
2019-02-18T18:28:47.626Z,13.08
2019-02-18T18:31:16.222Z,13.80
2019-02-18T18:33:45.043Z,13.14
2019-02-18T18:36:13.719Z,13.86
2019-02-18T18:38:42.336Z,13.63
2019-02-18T18:41:11.000Z,13.66
2019-02-18T18:43:39.599Z,13.34
2019-02-18T18:46:08.275Z,13.36
2019-02-18T18:48:36.983Z,13.36
2019-02-18T18:51:05.585Z,13.32
2019-02-18T18:53:34.465Z,13.06
2019-02-18T18:56:03.268Z,13.35
2019-02-18T18:58:32.052Z,12.28
2019-02-18T19:01:00.904Z,12.28
2019-02-18T19:03:29.510Z,12.77
2019-02-18T19:05:58.288Z,12.77
2019-02-18T19:08:26.927Z,12.14
2019-02-18T19:10:55.899Z,11.73
2019-02-18T19:13:24.740Z,11.73
2019-02-18T19:15:53.374Z,12.14
2019-02-18T19:18:22.279Z,12.45
2019-02-18T19:20:50.918Z,11.65
2019-02-18T19:23:19.543Z,12.51
2019-02-18T19:25:48.418Z,12.82
2019-02-18T19:28:17.043Z,11.77
2019-02-18T19:30:45.887Z,13.21
2019-02-18T19:33:14.963Z,13.21
2019-02-18T19:35:43.545Z,13.21
2019-02-18T19:38:12.148Z,11.66
2019-02-18T19:40:40.730Z,11.66
2019-02-18T19:43:09.662Z,12.32
2019-02-18T19:45:38.424Z,12.32
2019-02-18T19:48:07.128Z,11.90
2019-02-18T19:50:35.988Z,11.74
2019-02-18T19:53:04.904Z,11.74
2019-02-18T19:55:33.458Z,11.97
2019-02-18T19:58:02.295Z,12.12
2019-02-18T20:00:31.118Z,12.10
2019-02-18T20:02:59.735Z,11.86
2019-02-18T20:05:28.393Z,11.86
2019-02-18T20:07:57.590Z,12.01
2019-02-18T20:10:26.633Z,12.01
2019-02-18T20:12:55.716Z,12.51
2019-02-18T20:15:24.320Z,12.51
2019-02-18T20:17:52.913Z,12.99
2019-02-18T20:20:21.766Z,11.92
2019-02-18T20:22:50.372Z,12.02
2019-02-18T20:25:18.978Z,12.25
2019-02-18T20:27:48.091Z,11.80
2019-02-18T20:30:16.768Z,12.05
2019-02-18T20:32:45.522Z,12.05
2019-02-18T20:35:14.520Z,12.11
2019-02-18T20:37:45.051Z,12.14
2019-02-18T20:40:13.730Z,12.14
2019-02-18T20:42:43.340Z,11.70
2019-02-18T20:45:12.263Z,11.97
2019-02-18T20:47:41.554Z,12.12
2019-02-18T20:50:10.544Z,12.12
2019-02-18T20:52:39.544Z,12.31
2019-02-18T20:55:09.693Z,12.31
2019-02-18T20:57:38.555Z,12.17
2019-02-18T21:02:38.432Z,12.37
2019-02-18T21:05:07.086Z,12.37
2019-02-18T21:07:36.004Z,12.33
2019-02-18T21:10:04.969Z,12.15
2019-02-18T21:12:33.691Z,11.85
2019-02-18T21:15:02.405Z,11.60
2019-02-18T21:17:31.045Z,11.60
2019-02-18T21:20:02.767Z,12.48
2019-02-18T21:22:31.385Z,12.13
2019-02-18T21:24:59.971Z,12.13
2019-02-18T23:59:18.058Z,10.78
